createdAt,value
2023-04-02T00:02:32.589Z,100213.38
2023-04-02T00:05:34.671Z,100213.59
2023-04-02T00:08:03.597Z,100211.97
2023-04-02T00:10:33.235Z,100234.47
2023-04-02T00:13:05.655Z,100240.72
2023-04-02T00:15:33.926Z,100184.78
2023-04-02T00:18:03.627Z,100247.22
2023-04-02T00:20:32.101Z,100182.38
2023-04-02T00:23:00.024Z,100262.44
2023-04-02T00:25:28.710Z,100264.34
2023-04-02T00:27:56.839Z,100266.84
2023-04-02T00:30:24.701Z,100269.75
2023-04-02T00:32:52.748Z,100243.03
2023-04-02T00:35:24.569Z,100267.56
2023-04-02T00:37:52.486Z,100289.59
2023-04-02T00:40:22.212Z,100288.75
2023-04-02T00:42:51.683Z,100258.28
2023-04-02T00:45:24.130Z,100297.53
2023-04-02T00:47:52.350Z,100296.06
2023-04-02T00:50:25.751Z,100211.94
2023-04-02T00:52:53.746Z,100305.88
2023-04-02T00:55:23.296Z,100319.69
2023-04-02T00:57:51.457Z,100317.78
2023-04-02T01:00:22.048Z,100170.78
2023-04-02T01:03:28.883Z,100326.78
2023-04-02T01:06:02.732Z,100259.97
2023-04-02T01:08:36.867Z,100333.44
2023-04-02T01:11:05.829Z,100338.69
2023-04-02T01:13:36.639Z,100341.41
2023-04-02T01:16:07.627Z,100274.22
2023-04-02T01:18:42.452Z,100353.31
2023-04-02T01:21:32.882Z,100334.06
2023-04-02T01:24:02.738Z,100313.06
2023-04-02T01:26:38.170Z,100365.84
2023-04-02T01:29:10.191Z,100366.88
2023-04-02T01:31:38.420Z,100369.59
2023-04-02T01:34:07.815Z,100366.31
2023-04-02T01:36:40.521Z,100283.34
2023-04-02T01:39:15.821Z,100379.44
2023-04-02T01:41:46.342Z,100389.44
2023-04-02T01:44:16.563Z,100389.44
2023-04-02T01:46:44.829Z,100380.09
2023-04-02T01:49:14.074Z,100404.25
2023-04-02T01:51:43.873Z,100405.94
2023-04-02T01:54:11.736Z,100413.03
2023-04-02T01:56:39.666Z,100412.16
2023-04-02T01:59:07.952Z,100422.22
2023-04-02T02:01:37.893Z,100379.03
2023-04-02T02:04:06.017Z,100430.16
2023-04-02T02:06:33.923Z,100393.88
2023-04-02T02:09:03.689Z,100433.72
2023-04-02T02:11:33.044Z,100442.03
2023-04-02T02:14:01.704Z,100443.09
2023-04-02T02:16:31.927Z,100450.16
2023-04-02T02:19:02.703Z,100455.59
2023-04-02T02:21:35.418Z,100462.72
2023-04-02T02:24:04.852Z,100454.84
2023-04-02T02:26:34.028Z,100433.47
2023-04-02T02:29:01.938Z,100470.03
2023-04-02T02:31:33.165Z,100451.81
2023-04-02T02:34:04.124Z,100483.81
2023-04-02T02:36:33.977Z,100477.22
2023-04-02T02:39:03.325Z,100491.97
2023-04-02T02:41:33.084Z,100481.22
2023-04-02T02:44:03.745Z,100512.84
2023-04-02T02:46:31.742Z,100500.38
2023-04-02T02:48:59.726Z,100518.28
2023-04-02T02:51:30.939Z,100516.63
2023-04-02T02:54:01.489Z,100521.84
2023-04-02T02:56:29.362Z,100522.66
2023-04-02T02:58:57.280Z,100536.25
2023-04-02T03:01:25.547Z,100552.53
2023-04-02T03:03:54.385Z,100525.25
2023-04-02T03:06:22.557Z,100553.56
2023-04-02T03:08:54.533Z,100552.75
2023-04-02T03:11:26.447Z,100553.56
2023-04-02T03:13:55.253Z,100567.16
2023-04-02T03:16:24.686Z,100549.69
2023-04-02T03:18:54.515Z,100580.47
2023-04-02T03:21:26.967Z,100587.41
2023-04-02T03:23:57.378Z,100597.44
2023-04-02T03:26:28.051Z,100598.06
2023-04-02T03:28:58.148Z,100596.38
2023-04-02T03:31:28.352Z,100604.53
2023-04-02T03:33:57.978Z,100604.53
2023-04-02T03:36:28.546Z,100617.91
2023-04-02T03:39:02.971Z,100621.44
2023-04-02T03:41:33.563Z,100623.31
2023-04-02T03:44:04.345Z,100614.81
2023-04-02T03:46:33.604Z,100604.56
2023-04-02T03:49:02.287Z,100633.56
2023-04-02T03:51:32.348Z,100643.16
2023-04-02T03:54:01.707Z,100643.97
2023-04-02T03:56:31.582Z,100657.53
2023-04-02T03:59:06.470Z,100662.97
2023-04-02T04:01:36.083Z,100627.00
2023-04-02T04:04:06.066Z,100671.13
2023-04-02T04:06:34.449Z,100648.66
2023-04-02T04:09:09.226Z,100688.25
2023-04-02T04:11:38.932Z,100664.94
2023-04-02T04:14:08.448Z,100694.53
2023-04-02T04:16:42.980Z,100678.88
2023-04-02T04:19:14.219Z,100707.25
2023-04-02T04:21:45.204Z,100705.38
2023-04-02T04:24:20.236Z,100666.25
2023-04-02T04:26:49.649Z,100720.84
2023-04-02T04:29:25.862Z,100723.53
2023-04-02T04:31:55.835Z,100725.44
2023-04-02T04:34:26.526Z,100739.63
2023-04-02T04:36:56.596Z,100739.00
2023-04-02T04:39:30.882Z,100737.75
2023-04-02T04:41:59.965Z,100756.13
2023-04-02T04:44:34.112Z,100729.50
2023-04-02T04:47:03.869Z,100773.25
2023-04-02T04:49:33.623Z,100783.28
2023-04-02T04:52:06.797Z,100789.56
2023-04-02T04:54:38.229Z,100794.97
2023-04-02T04:57:06.187Z,100795.84
2023-04-02T04:59:34.995Z,100792.91
2023-04-02T05:02:04.513Z,100814.00
2023-04-02T05:04:32.985Z,100816.72
2023-04-02T05:07:03.873Z,100829.44
2023-04-02T05:09:34.282Z,100824.84
2023-04-02T05:12:08.105Z,100750.66
2023-04-02T05:14:37.922Z,100833.00
2023-04-02T05:17:06.684Z,100801.31
2023-04-02T05:19:36.776Z,100820.69
2023-04-02T05:22:07.345Z,100860.16
2023-04-02T05:24:43.395Z,100861.00
2023-04-02T05:27:21.149Z,100858.47
2023-04-02T05:29:51.728Z,100862.88
2023-04-02T05:32:21.601Z,100872.88
2023-04-02T05:34:51.611Z,100884.59
2023-04-02T05:37:20.311Z,100869.75
2023-04-02T05:39:49.402Z,100895.44
2023-04-02T05:42:20.336Z,100903.59
2023-04-02T05:44:56.678Z,100903.59
2023-04-02T05:47:25.701Z,100909.03
2023-04-02T05:49:56.360Z,100915.28
2023-04-02T05:52:26.285Z,100920.72
2023-04-02T05:54:56.261Z,100934.31
2023-04-02T05:57:39.383Z,100936.19
2023-04-02T06:00:17.462Z,100947.03
2023-04-02T06:02:51.412Z,100942.44
2023-04-02T06:05:20.884Z,100966.06
2023-04-02T06:07:49.735Z,100966.06
2023-04-02T06:10:20.700Z,100972.31
2023-04-02T06:12:52.495Z,100943.28
2023-04-02T06:15:21.481Z,100990.50
2023-04-02T06:17:49.924Z,100994.88
2023-04-02T06:20:18.543Z,101004.06
2023-04-02T06:22:47.001Z,101004.91
2023-04-02T06:25:17.132Z,101004.91
2023-04-02T06:27:45.153Z,101012.22
2023-04-02T06:30:18.567Z,101023.06
2023-04-02T06:32:46.862Z,101024.97
2023-04-02T06:35:16.357Z,101019.53
2023-04-02T06:37:44.564Z,100941.81
2023-04-02T06:40:27.165Z,101036.66
2023-04-02T06:42:59.622Z,101041.88
2023-04-02T06:45:30.679Z,101051.06
2023-04-02T06:47:58.698Z,101003.19
2023-04-02T06:50:27.991Z,101052.75
2023-04-02T06:52:57.208Z,101063.81
2023-04-02T06:55:31.164Z,101073.63
2023-04-02T06:57:59.106Z,101079.06
2023-04-02T07:00:31.603Z,101003.81
2023-04-02T07:02:59.564Z,101088.25
2023-04-02T07:05:27.533Z,101098.91
2023-04-02T07:07:55.791Z,101107.06
2023-04-02T07:10:23.725Z,101109.78
2023-04-02T07:12:51.920Z,101117.94
2023-04-02T07:15:20.198Z,101109.75
2023-04-02T07:17:49.876Z,101123.34
2023-04-02T07:20:26.198Z,101130.66
2023-04-02T07:22:54.155Z,101106.78
2023-04-02T07:25:22.264Z,101140.50
2023-04-02T07:27:50.660Z,101117.66
2023-04-02T07:30:18.741Z,101114.31
2023-04-02T07:32:47.100Z,101131.25
2023-04-02T07:35:17.607Z,101155.94
2023-04-02T07:37:45.687Z,101160.34
2023-04-02T07:40:17.569Z,101161.19
2023-04-02T07:42:47.875Z,101165.78
2023-04-02T07:45:16.136Z,101175.78
2023-04-02T07:47:44.299Z,101184.78
2023-04-02T07:50:12.223Z,101191.06
2023-04-02T07:52:42.574Z,101196.47
2023-04-02T07:55:12.543Z,101192.94
2023-04-02T07:57:43.101Z,101105.66
2023-04-02T08:00:13.593Z,101206.50
2023-04-02T08:02:42.518Z,101198.53
2023-04-02T08:05:11.430Z,101218.22
2023-04-02T08:07:40.133Z,101224.47
2023-04-02T08:10:10.997Z,101238.88
2023-04-02T08:12:39.254Z,101194.06
2023-04-02T08:15:10.437Z,101239.09
2023-04-02T08:17:38.428Z,101246.22
2023-04-02T08:20:08.113Z,101245.38
2023-04-02T08:22:36.420Z,101259.78
2023-04-02T08:25:04.435Z,101262.50
2023-04-02T08:27:33.705Z,101275.25
2023-04-02T08:30:01.638Z,101278.81
2023-04-02T08:32:29.982Z,101279.84
2023-04-02T08:34:57.952Z,101293.41
2023-04-02T08:37:25.904Z,101284.22
2023-04-02T08:39:53.787Z,101307.00
2023-04-02T08:42:24.338Z,101302.41
2023-04-02T08:45:08.077Z,101247.69
2023-04-02T08:47:42.048Z,101284.94
2023-04-02T08:50:15.416Z,101320.78
2023-04-02T08:52:43.321Z,101332.28
2023-04-02T08:55:18.969Z,101343.16
2023-04-02T08:57:48.457Z,101350.22
2023-04-02T09:00:26.932Z,101349.41
2023-04-02T09:02:57.068Z,101346.06
2023-04-02T09:05:27.868Z,101349.19
2023-04-02T09:07:56.517Z,101363.63
2023-04-02T09:10:24.477Z,101357.34
2023-04-02T09:12:53.111Z,101369.03
2023-04-02T09:15:29.372Z,101364.41
2023-04-02T09:17:59.643Z,101340.50
2023-04-02T09:20:29.281Z,101370.91
2023-04-02T09:22:57.207Z,101374.47
2023-04-02T09:25:27.164Z,101378.88
2023-04-02T09:27:56.176Z,101381.59
2023-04-02T09:30:31.517Z,101398.72
2023-04-02T09:33:02.057Z,101398.72
2023-04-02T09:35:30.333Z,101397.47
2023-04-02T09:38:20.660Z,101415.03
2023-04-02T09:40:50.573Z,101416.06
2023-04-02T09:43:19.190Z,101426.72
2023-04-02T09:45:57.319Z,101434.03
2023-04-02T09:48:27.093Z,101440.31
2023-04-02T09:51:08.453Z,101428.50
2023-04-02T09:53:37.040Z,101453.91
2023-04-02T09:56:13.007Z,101455.78
2023-04-02T09:58:41.815Z,101458.50
2023-04-02T10:01:31.144Z,101464.75
2023-04-02T10:04:00.158Z,101455.72
2023-04-02T10:06:29.202Z,101479.38
2023-04-02T10:08:57.106Z,101472.19
2023-04-02T10:11:36.399Z,101480.16
2023-04-02T10:14:10.983Z,101474.28
2023-04-02T10:16:41.607Z,101430.63
2023-04-02T10:19:14.850Z,101499.84
2023-04-02T10:21:43.138Z,101504.66
2023-04-02T10:24:12.117Z,101513.66
2023-04-02T10:26:46.817Z,101518.25
2023-04-02T10:29:23.083Z,101490.59
2023-04-02T10:31:55.964Z,101496.03
2023-04-02T10:34:25.875Z,101522.84
2023-04-02T10:36:55.379Z,101477.22
2023-04-02T10:39:24.029Z,101524.66
2023-04-02T10:41:54.452Z,101523.56
2023-04-02T10:44:32.622Z,101540.16
2023-04-02T10:47:10.051Z,101543.91
2023-04-02T10:49:42.437Z,101520.13
2023-04-02T10:52:13.570Z,101506.09
2023-04-02T10:54:44.607Z,101529.84
2023-04-02T10:57:19.795Z,101554.78
2023-04-02T10:59:48.829Z,101563.75
2023-04-02T11:02:27.342Z,101571.06
2023-04-02T11:04:57.337Z,101573.78
2023-04-02T11:07:27.425Z,101588.44
2023-04-02T11:09:57.139Z,101594.66
2023-04-02T11:12:28.456Z,101592.78
2023-04-02T11:14:56.475Z,101558.06
2023-04-02T11:17:25.900Z,101593.84
2023-04-02T11:19:54.111Z,101591.16
2023-04-02T11:22:22.448Z,101610.16
2023-04-02T11:24:51.153Z,101613.69
2023-04-02T11:27:24.307Z,101621.03
2023-04-02T11:29:53.386Z,101614.75
2023-04-02T11:32:36.856Z,101616.63
2023-04-02T11:35:38.599Z,101609.81
2023-04-02T11:38:40.968Z,101616.41
2023-04-02T11:41:08.885Z,101626.44
2023-04-02T11:43:52.296Z,101620.94
2023-04-02T11:46:46.836Z,101617.28
2023-04-02T11:49:41.156Z,101643.38
2023-04-02T11:52:26.985Z,101609.72
2023-04-02T11:55:02.364Z,101644.03
2023-04-02T11:57:43.589Z,101637.56
2023-04-02T12:00:50.973Z,101646.34
2023-04-02T12:03:32.359Z,101641.56
2023-04-02T12:06:04.336Z,101645.13
2023-04-02T12:08:50.636Z,101653.28
2023-04-02T12:11:32.272Z,101596.66
2023-04-02T12:14:00.488Z,101666.22
2023-04-02T12:16:31.377Z,101668.06
2023-04-02T12:18:59.331Z,101671.63
2023-04-02T12:21:31.127Z,101674.53
2023-04-02T12:23:59.733Z,101664.75
2023-04-02T12:26:37.429Z,101679.13
2023-04-02T12:29:22.147Z,101679.47
2023-04-02T12:31:50.466Z,101686.66
2023-04-02T12:34:19.178Z,101687.69
2023-04-02T12:36:55.714Z,101671.72
2023-04-02T12:39:25.832Z,101642.19
2023-04-02T12:41:55.873Z,101689.72
2023-04-02T12:44:24.823Z,101700.41
2023-04-02T12:46:53.395Z,101695.38
2023-04-02T12:49:35.217Z,101708.75
2023-04-02T12:52:05.359Z,101666.66
2023-04-02T12:54:36.692Z,101719.44
2023-04-02T12:57:23.320Z,101720.28
2023-04-02T12:59:51.281Z,101713.91
2023-04-02T13:02:20.197Z,101672.69
2023-04-02T13:04:49.130Z,101685.09
2023-04-02T13:07:19.985Z,101724.03
2023-04-02T13:09:48.406Z,101717.75
2023-04-02T13:12:26.807Z,101681.50
2023-04-02T13:14:56.086Z,101724.03
2023-04-02T13:17:43.541Z,101695.50
2023-04-02T13:20:31.086Z,101741.56
2023-04-02T13:23:00.819Z,101740.53
2023-04-02T13:25:30.494Z,101715.44
2023-04-02T13:27:58.525Z,101739.69
2023-04-02T13:30:27.395Z,101692.84
2023-04-02T13:32:55.907Z,101744.91
2023-04-02T13:35:24.464Z,101749.50
2023-04-02T13:37:52.398Z,101753.06
2023-04-02T13:40:21.755Z,101759.34
2023-04-02T13:42:49.984Z,101755.13
2023-04-02T13:45:25.702Z,101735.28
2023-04-02T13:47:53.731Z,101766.44
2023-04-02T13:50:22.520Z,101772.91
2023-04-02T13:52:51.429Z,101781.06
2023-04-02T13:55:19.448Z,101752.72
2023-04-02T13:57:50.163Z,101775.63
2023-04-02T14:00:19.820Z,101779.19
2023-04-02T14:02:49.991Z,101778.34
2023-04-02T14:05:27.862Z,101717.63
2023-04-02T14:08:04.417Z,101801.09
2023-04-02T14:10:48.497Z,101802.78
2023-04-02T14:13:44.882Z,101788.69
2023-04-02T14:16:19.716Z,101810.09
2023-04-02T14:19:00.691Z,101815.53
2023-04-02T14:21:33.024Z,101813.66
2023-04-02T14:24:08.807Z,101825.56
2023-04-02T14:26:40.576Z,101819.03
2023-04-02T14:29:13.318Z,101785.97
2023-04-02T14:31:43.267Z,101751.16
2023-04-02T14:34:16.198Z,101830.63
2023-04-02T14:36:49.863Z,101836.06
2023-04-02T14:39:20.618Z,101840.63
2023-04-02T14:41:50.968Z,101752.38
2023-04-02T14:44:20.562Z,101847.94
2023-04-02T14:46:48.641Z,101849.81
2023-04-02T14:49:23.691Z,101853.38
2023-04-02T14:51:52.860Z,101862.38
2023-04-02T14:54:23.855Z,101774.75
2023-04-02T14:56:53.401Z,101864.06
2023-04-02T14:59:27.332Z,101866.78
2023-04-02T15:01:56.649Z,101864.25
2023-04-02T15:04:27.819Z,101872.00
2023-04-02T15:06:58.793Z,101882.06
2023-04-02T15:09:28.510Z,101888.50
2023-04-02T15:11:58.055Z,101882.06
2023-04-02T15:14:29.648Z,101863.50
2023-04-02T15:16:57.533Z,101888.31
2023-04-02T15:19:25.458Z,101886.44
2023-04-02T15:22:08.700Z,101891.88
2023-04-02T15:24:43.198Z,101853.28
2023-04-02T15:27:25.230Z,101889.16
2023-04-02T15:29:57.862Z,101888.69
2023-04-02T15:32:30.735Z,101886.66
2023-04-02T15:35:00.778Z,101886.44
2023-04-02T15:37:31.052Z,101886.44
2023-04-02T15:40:09.053Z,101893.72
2023-04-02T15:42:38.683Z,101880.44
2023-04-02T15:45:19.504Z,101871.94
2023-04-02T15:47:57.120Z,101904.81
2023-04-02T15:50:40.982Z,101916.69
2023-04-02T15:53:15.258Z,101902.28
2023-04-02T15:55:45.426Z,101909.41
2023-04-02T15:58:35.592Z,101912.97
2023-04-02T16:01:08.420Z,101882.22
2023-04-02T16:03:50.795Z,101910.44
2023-04-02T16:06:27.154Z,101857.41
2023-04-02T16:09:03.675Z,101892.13
2023-04-02T16:11:31.609Z,101925.88
2023-04-02T16:14:03.480Z,101918.88
2023-04-02T16:16:33.731Z,101937.59
2023-04-02T16:19:04.570Z,101929.34
2023-04-02T16:21:33.917Z,101937.59
2023-04-02T16:24:01.996Z,101954.06
2023-04-02T16:26:36.438Z,101928.38
2023-04-02T16:29:17.079Z,101936.84
2023-04-02T16:31:49.185Z,101930.63
2023-04-02T16:34:21.378Z,101957.63
2023-04-02T16:36:52.666Z,101962.03
2023-04-02T16:39:27.045Z,101962.88
2023-04-02T16:42:00.799Z,101964.75
2023-04-02T16:44:33.367Z,101968.50
2023-04-02T16:47:10.432Z,101965.78
2023-04-02T16:49:39.932Z,101975.63
2023-04-02T16:52:18.403Z,101947.28
2023-04-02T16:54:48.568Z,101972.91
2023-04-02T16:57:28.718Z,101993.44
2023-04-02T17:00:02.399Z,101982.47
2023-04-02T17:02:39.836Z,101995.31
2023-04-02T17:05:13.771Z,102001.59
2023-04-02T17:07:42.502Z,101961.91
2023-04-02T17:10:24.763Z,101944.06
2023-04-02T17:12:55.776Z,102010.56
2023-04-02T17:15:28.331Z,102014.97
2023-04-02T17:17:59.542Z,102014.13
2023-04-02T17:20:27.743Z,102017.50
2023-04-02T17:22:56.054Z,102025.47
2023-04-02T17:25:26.063Z,102031.09
2023-04-02T17:27:55.586Z,102031.09
2023-04-02T17:30:27.776Z,102032.78
2023-04-02T17:32:56.039Z,102039.91
2023-04-02T17:35:32.411Z,102031.09
2023-04-02T17:38:03.778Z,102041.56
2023-04-02T17:40:33.360Z,102034.19
2023-04-02T17:43:04.550Z,101986.03
2023-04-02T17:45:36.114Z,102051.41
2023-04-02T17:48:05.445Z,101893.84
2023-04-02T17:50:46.218Z,102063.97
2023-04-02T17:53:21.751Z,102066.50
2023-04-02T17:55:54.190Z,102068.38
2023-04-02T17:58:31.521Z,102076.34
2023-04-02T18:01:02.587Z,102083.28
2023-04-02T18:03:40.323Z,102082.59
2023-04-02T18:06:12.159Z,102087.69
2023-04-02T18:08:43.579Z,102077.72
2023-04-02T18:11:13.497Z,102088.72
2023-04-02T18:13:42.955Z,102085.88
2023-04-02T18:16:35.381Z,102103.31
2023-04-02T18:19:12.464Z,102078.19
2023-04-02T18:21:46.378Z,101956.53
2023-04-02T18:24:36.889Z,102114.41
2023-04-02T18:27:13.484Z,102129.84
2023-04-02T18:29:43.607Z,102105.84
2023-04-02T18:32:34.723Z,102130.88
2023-04-02T18:35:07.645Z,102098.97
2023-04-02T18:37:39.863Z,102136.50
2023-04-02T18:40:18.706Z,102140.06
2023-04-02T18:42:50.618Z,102144.63
2023-04-02T18:45:20.410Z,102143.78
2023-04-02T18:47:50.379Z,102154.66
2023-04-02T18:50:19.411Z,102122.75
2023-04-02T18:52:48.937Z,102159.25
2023-04-02T18:55:18.604Z,102135.59
2023-04-02T18:57:46.656Z,102167.41
2023-04-02T19:00:25.840Z,102171.97
2023-04-02T19:02:55.559Z,102161.88
2023-04-02T19:05:24.481Z,102171.34
2023-04-02T19:07:59.289Z,102173.69
2023-04-02T19:10:30.104Z,102183.53
2023-04-02T19:12:58.014Z,102184.38
2023-04-02T19:15:29.516Z,102188.97
2023-04-02T19:18:00.067Z,102190.84
2023-04-02T19:20:32.139Z,102186.41
2023-04-02T19:23:07.857Z,102191.84
2023-04-02T19:25:44.833Z,102187.13
2023-04-02T19:28:14.259Z,102207.50
2023-04-02T19:30:57.907Z,102142.94
2023-04-02T19:33:32.418Z,102207.50
2023-04-02T19:36:00.907Z,102155.63
2023-04-02T19:38:41.877Z,102186.41
2023-04-02T19:41:11.345Z,102170.16
2023-04-02T19:43:39.214Z,102221.75
2023-04-02T19:46:07.119Z,102218.19
2023-04-02T19:48:39.598Z,102214.50
2023-04-02T19:51:07.774Z,102222.78
2023-04-02T19:53:37.057Z,102209.25
2023-04-02T19:56:05.155Z,102216.38
2023-04-02T19:58:33.705Z,102227.38
2023-04-02T20:01:01.969Z,102211.84
2023-04-02T20:03:30.222Z,102239.28
2023-04-02T20:05:59.619Z,102243.84
2023-04-02T20:08:27.744Z,102241.97
2023-04-02T20:10:58.631Z,102244.69
2023-04-02T20:13:26.615Z,102249.28
2023-04-02T20:15:54.760Z,102250.47
2023-04-02T20:18:22.705Z,102247.59
2023-04-02T20:20:50.965Z,102251.16
2023-04-02T20:23:20.127Z,102254.72
2023-04-02T20:25:48.206Z,102257.59
2023-04-02T20:28:17.516Z,102260.69
2023-04-02T20:30:46.375Z,102261.19
2023-04-02T20:33:14.403Z,102218.91
2023-04-02T20:35:42.409Z,102265.28
2023-04-02T20:38:11.710Z,102273.06
2023-04-02T20:40:40.348Z,102278.50
2023-04-02T20:43:08.727Z,102271.25
2023-04-02T20:45:38.096Z,102281.22
2023-04-02T20:48:06.353Z,102278.50
2023-04-02T20:50:35.038Z,102285.81
2023-04-02T20:53:03.172Z,102282.22
2023-04-02T20:55:31.517Z,102252.13
2023-04-02T20:57:59.414Z,102280.25
2023-04-02T21:00:27.343Z,102285.88
2023-04-02T21:02:57.766Z,102298.72
2023-04-02T21:05:25.812Z,102297.41
2023-04-02T21:07:53.692Z,102302.31
2023-04-02T21:10:21.696Z,102314.03
2023-04-02T21:12:50.061Z,102298.44
2023-04-02T21:15:18.028Z,102305.00
2023-04-02T21:17:46.032Z,102308.59
2023-04-02T21:20:15.506Z,102211.59
2023-04-02T21:22:43.722Z,102313.16
2023-04-02T21:25:11.603Z,102310.44
2023-04-02T21:27:39.585Z,102302.16
2023-04-02T21:30:10.621Z,102303.84
2023-04-02T21:32:38.847Z,102321.50
2023-04-02T21:35:08.832Z,102318.59
2023-04-02T21:37:38.192Z,102323.19
2023-04-02T21:40:07.305Z,102324.88
2023-04-02T21:42:36.512Z,102318.78
2023-04-02T21:45:04.614Z,102315.19
2023-04-02T21:47:32.555Z,102323.34
2023-04-02T21:50:00.496Z,102319.13
2023-04-02T21:52:28.717Z,102320.88
2023-04-02T21:54:58.052Z,102337.97
2023-04-02T21:57:26.094Z,102329.00
2023-04-02T21:59:56.895Z,102331.88
2023-04-02T22:02:25.307Z,102321.53
2023-04-02T22:04:53.344Z,102335.59
2023-04-02T22:07:21.297Z,102336.63
2023-04-02T22:09:49.204Z,102337.47
2023-04-02T22:12:18.785Z,102343.94
2023-04-02T22:14:47.064Z,102337.66
2023-04-02T22:17:14.986Z,102342.22
2023-04-02T22:19:42.883Z,102345.31
2023-04-02T22:22:11.112Z,102339.38
2023-04-02T22:24:39.040Z,102350.38
2023-04-02T22:27:06.939Z,102349.53
2023-04-02T22:29:36.278Z,102350.56
2023-04-02T22:32:04.494Z,102358.72
2023-04-02T22:34:32.983Z,102343.63
2023-04-02T22:37:00.906Z,102354.81
2023-04-02T22:39:28.859Z,102359.75
2023-04-02T22:41:57.092Z,102333.63
2023-04-02T22:44:24.996Z,102367.91
2023-04-02T22:46:54.366Z,102349.22
2023-04-02T22:49:22.283Z,102375.19
2023-04-02T22:51:50.506Z,102368.91
2023-04-02T22:54:18.446Z,102380.63
2023-04-02T22:56:46.394Z,102377.06
2023-04-02T22:59:14.724Z,102381.66
2023-04-02T23:01:42.950Z,102384.53
2023-04-02T23:04:12.273Z,102388.09
2023-04-02T23:06:40.345Z,102333.88
2023-04-02T23:09:08.476Z,102390.81
2023-04-02T23:11:36.820Z,102385.38
2023-04-02T23:14:04.728Z,102386.22
2023-04-02T23:16:32.726Z,102387.25
2023-04-02T23:19:00.726Z,102385.38
2023-04-02T23:21:30.356Z,102389.06
2023-04-02T23:23:58.276Z,102393.69
2023-04-02T23:26:29.120Z,102334.72
2023-04-02T23:28:57.659Z,102387.41
2023-04-02T23:31:25.944Z,102392.00
2023-04-02T23:33:53.884Z,102393.84
2023-04-02T23:36:22.896Z,102392.00
2023-04-02T23:38:55.262Z,102386.41
2023-04-02T23:41:23.970Z,102404.56
2023-04-02T23:43:51.998Z,102399.13
2023-04-02T23:46:19.996Z,102397.41
2023-04-02T23:48:47.901Z,102402.00
2023-04-02T23:51:16.142Z,102385.56
2023-04-02T23:53:44.324Z,102393.84
2023-04-02T23:56:13.672Z,102374.84
2023-04-02T23:58:41.577Z,102357.44
